Time;durP1;ratioP1;P1;durP2;ratioP2;P2;SDS_P1;SDS_P2;PMS_P1;PMS_P2;Temp;Humidity;BMP_temperature;BMP_pressure;BME280_temperature;BME280_humidity;BME280_pressure;Samples;Min_cycle;Max_cycle;Signal;HPM_P1;HPM_P2
2020/12/05 00:00:44;;;;;;;3.80;3.60;;;1.20;99.90;;;;;;5038891;28;20222;-68
2020/12/05 00:03:11;;;;;;;3.92;3.72;;;1.20;99.90;;;;;;5035485;28;20234;-68
2020/12/05 00:05:38;;;;;;;5.88;4.38;;;1.20;99.90;;;;;;5040798;28;20678;-68
2020/12/05 00:08:04;;;;;;;4.03;3.80;;;1.10;99.90;;;;;;5038433;28;20272;-68
2020/12/05 00:10:31;;;;;;;22.65;5.00;;;1.10;99.90;;;;;;5035239;28;20215;-69
2020/12/05 00:12:57;;;;;;;123.65;10.32;;;1.00;99.90;;;;;;5037206;28;21719;-67
2020/12/05 00:15:24;;;;;;;3.90;3.60;;;0.90;99.90;;;;;;5039606;28;21555;-68
2020/12/05 00:17:54;;;;;;;102.55;7.57;;;0.80;99.90;;;;;;5034488;28;20215;-68
2020/12/05 00:20:20;;;;;;;3.80;3.60;;;0.70;99.90;;;;;;5039597;28;20324;-68
2020/12/05 00:22:47;;;;;;;3.65;3.45;;;0.70;99.90;;;;;;5035523;28;20227;-68
2020/12/05 00:25:13;;;;;;;3.30;3.20;;;0.80;99.90;;;;;;5042181;28;20214;-68
2020/12/05 00:27:40;;;;;;;3.42;3.33;;;0.80;99.90;;;;;;5035112;28;20219;-68
2020/12/05 00:30:07;;;;;;;2.92;2.83;;;0.90;99.90;;;;;;5042911;28;20195;-68
2020/12/05 00:32:33;;;;;;;2.78;2.67;;;1.10;99.90;;;;;;5037262;28;20648;-69
2020/12/05 00:35:00;;;;;;;2.92;2.83;;;1.10;99.90;;;;;;5039937;28;20222;-68
2020/12/05 00:37:29;;;;;;;3.10;3.00;;;1.10;99.90;;;;;;5044916;28;22057;-68
2020/12/05 00:39:55;;;;;;;2.92;2.83;;;1.20;99.90;;;;;;5044668;28;20237;-68
2020/12/05 00:42:22;;;;;;;2.85;2.75;;;1.20;99.90;;;;;;5046934;28;20214;-68
2020/12/05 00:44:48;;;;;;;2.55;2.45;;;1.10;99.90;;;;;;5043872;28;20265;-68
2020/12/05 00:47:15;;;;;;;2.97;2.88;;;1.10;99.90;;;;;;5042818;28;20279;-68
2020/12/05 00:49:42;;;;;;;2.95;2.85;;;1.20;99.90;;;;;;5042085;28;20200;-68
2020/12/05 00:52:09;;;;;;;3.10;3.00;;;1.20;99.90;;;;;;5048421;28;20230;-68
2020/12/05 00:54:36;;;;;;;3.13;3.03;;;1.10;99.90;;;;;;5044932;28;20223;-68
2020/12/05 00:57:02;;;;;;;2.92;2.83;;;1.10;99.90;;;;;;5047823;28;20214;-68
2020/12/05 00:59:29;;;;;;;2.75;2.65;;;1.10;99.90;;;;;;5041095;28;20604;-68
2020/12/05 01:01:55;;;;;;;3.22;3.13;;;1.10;99.90;;;;;;5040798;28;20230;-68
2020/12/05 01:04:23;;;;;;;3.15;3.05;;;1.20;99.90;;;;;;5046003;28;20215;-68
2020/12/05 01:06:49;;;;;;;3.10;3.00;;;1.30;99.90;;;;;;5043995;28;20200;-68
2020/12/05 01:09:17;;;;;;;2.92;2.83;;;1.30;99.90;;;;;;5041073;28;20203;-68
2020/12/05 01:11:46;;;;;;;2.85;2.75;;;1.30;99.90;;;;;;5040024;28;20246;-68
2020/12/05 01:14:12;;;;;;;3.10;3.00;;;1.30;99.90;;;;;;5064246;22;20249;-76
2020/12/05 01:16:39;;;;;;;2.85;2.75;;;1.30;99.90;;;;;;5056611;28;20207;-76
2020/12/05 01:19:05;;;;;;;2.42;2.33;;;1.40;99.90;;;;;;5059425;28;20198;-77
2020/12/05 01:21:32;;;;;;;3.67;3.50;;;1.40;99.90;;;;;;5059564;28;20206;-76
2020/12/05 01:23:58;;;;;;;44.35;5.78;;;1.30;99.90;;;;;;5050304;28;20621;-76
2020/12/05 01:26:26;;;;;;;3.95;3.75;;;1.20;99.90;;;;;;5042330;28;20715;-76
2020/12/05 01:28:52;;;;;;;3.78;3.58;;;1.10;99.90;;;;;;5038610;28;20276;-76
2020/12/05 01:31:19;;;;;;;3.25;3.10;;;1.10;99.90;;;;;;5036887;28;20223;-76
2020/12/05 01:33:45;;;;;;;3.17;3.08;;;1.10;99.90;;;;;;5037445;28;20218;-76
2020/12/05 01:36:12;;;;;;;3.17;3.08;;;1.20;99.90;;;;;;5037287;28;20206;-76
2020/12/05 01:38:38;;;;;;;2.55;2.45;;;1.20;99.90;;;;;;5042715;28;20215;-76
2020/12/05 01:41:05;;;;;;;3.10;3.00;;;1.30;99.90;;;;;;5041829;28;20194;-76
2020/12/05 01:43:33;;;;;;;2.88;2.78;;;1.30;99.90;;;;;;5043989;28;20227;-76
2020/12/05 01:46:01;;;;;;;3.25;3.15;;;1.30;99.90;;;;;;5039866;28;20226;-76
2020/12/05 01:48:27;;;;;;;3.40;3.30;;;1.30;99.90;;;;;;5035692;28;20223;-76
2020/12/05 01:50:55;;;;;;;2.88;2.78;;;1.30;99.90;;;;;;5048851;28;20272;-76
2020/12/05 01:53:22;;;;;;;3.10;3.00;;;1.30;99.90;;;;;;5039965;28;20226;-76
2020/12/05 01:55:51;;;;;;;3.40;3.30;;;1.30;99.90;;;;;;5045721;28;20298;-76
2020/12/05 01:58:18;;;;;;;3.35;3.17;;;1.30;99.90;;;;;;5038636;28;21890;-76
2020/12/05 02:00:46;;;;;;;3.20;3.10;;;1.20;99.90;;;;;;5040153;28;20593;-75
2020/12/05 02:03:14;;;;;;;3.10;3.00;;;1.30;99.90;;;;;;5039428;28;20227;-76
2020/12/05 02:08:50;;;;;;;3.65;3.50;;;1.30;99.90;;;;;;5042174;28;20214;-76
2020/12/05 02:11:21;;;;;;;3.53;3.40;;;1.40;99.90;;;;;;5037056;28;20219;-76
2020/12/05 02:13:49;;;;;;;3.20;3.10;;;1.40;99.90;;;;;;5043940;28;20238;-76
2020/12/05 02:16:17;;;;;;;14.50;3.85;;;1.40;99.90;;;;;;5040659;28;20195;-76
2020/12/05 02:18:45;;;;;;;3.20;3.03;;;1.30;99.90;;;;;;5041454;28;20214;-76
2020/12/05 02:21:15;;;;;;;3.45;3.28;;;1.20;99.90;;;;;;5036549;28;20609;-76
2020/12/05 02:23:46;;;;;;;3.75;3.58;;;1.20;99.90;;;;;;5036302;28;20704;-76
2020/12/05 02:26:13;;;;;;;3.70;3.50;;;1.30;99.90;;;;;;5042817;28;20203;-76
2020/12/05 02:28:40;;;;;;;3.20;3.10;;;1.30;99.90;;;;;;5039811;28;20332;-76
2020/12/05 02:31:07;;;;;;;3.25;3.15;;;1.40;99.90;;;;;;5045091;28;20231;-75
2020/12/05 02:33:34;;;;;;;3.08;2.97;;;1.40;99.90;;;;;;5037095;28;20704;-75
2020/12/05 02:36:00;;;;;;;3.30;3.20;;;1.50;99.90;;;;;;5038056;28;20222;-76
2020/12/05 02:38:34;;;;;;;3.00;2.90;;;1.50;99.90;;;;;;5041238;28;20301;-76
2020/12/05 02:41:01;;;;;;;2.92;2.83;;;1.60;99.90;;;;;;5041419;28;20723;-76
2020/12/05 02:43:28;;;;;;;3.08;2.97;;;1.60;99.90;;;;;;5040431;28;20223;-76
2020/12/05 02:45:55;;;;;;;3.00;2.90;;;1.60;99.90;;;;;;5035656;28;20208;-75
2020/12/05 02:48:22;;;;;;;3.03;2.92;;;1.60;99.90;;;;;;5040057;28;20222;-76
2020/12/05 02:50:49;;;;;;;2.78;2.67;;;1.70;99.90;;;;;;5040477;28;20199;-75
2020/12/05 02:53:15;;;;;;;2.95;2.83;;;1.70;99.90;;;;;;5037238;28;20231;-76
2020/12/05 02:55:42;;;;;;;3.33;3.22;;;1.60;99.90;;;;;;5036540;28;20718;-76
2020/12/05 02:58:09;;;;;;;2.92;2.83;;;1.50;99.90;;;;;;5040983;28;20222;-76
2020/12/05 03:00:36;;;;;;;2.85;2.67;;;1.40;99.90;;;;;;5048162;28;20199;-76
2020/12/05 03:03:02;;;;;;;189.60;9.07;;;1.30;99.90;;;;;;5043076;28;20233;-76
2020/12/05 03:05:29;;;;;;;53.25;4.90;;;1.20;99.90;;;;;;5043536;28;20286;-75
2020/12/05 03:07:55;;;;;;;3.00;2.90;;;1.10;99.90;;;;;;5040310;28;20226;-76
2020/12/05 03:10:22;;;;;;;2.83;2.72;;;1.00;99.90;;;;;;5038182;28;20192;-76
2020/12/05 03:12:48;;;;;;;2.78;2.67;;;1.00;99.90;;;;;;5041015;28;20241;-75
2020/12/05 03:15:16;;;;;;;2.80;2.70;;;1.00;99.90;;;;;;5043411;28;20207;-76
2020/12/05 03:17:42;;;;;;;3.10;3.00;;;1.00;99.90;;;;;;5043510;28;20266;-76
2020/12/05 03:20:09;;;;;;;2.58;2.47;;;1.00;99.90;;;;;;5039181;28;20255;-75
2020/12/05 03:22:35;;;;;;;3.10;3.00;;;1.10;99.90;;;;;;5039381;28;20671;-75
2020/12/05 03:25:02;;;;;;;2.70;2.60;;;1.10;99.90;;;;;;5041977;28;20257;-76
2020/12/05 03:27:29;;;;;;;2.80;2.70;;;1.20;99.90;;;;;;5045109;28;20223;-76
2020/12/05 03:29:55;;;;;;;3.05;2.95;;;1.30;99.90;;;;;;5042683;28;20210;-76
2020/12/05 03:32:25;;;;;;;2.50;2.40;;;1.30;99.90;;;;;;5041960;28;20226;-75
2020/12/05 03:34:51;;;;;;;2.92;2.83;;;1.30;99.90;;;;;;5037940;28;20281;-76
2020/12/05 03:37:19;;;;;;;2.72;2.63;;;1.30;99.90;;;;;;5042891;28;20195;-76
2020/12/05 03:39:45;;;;;;;2.88;2.78;;;1.40;99.90;;;;;;5044673;28;20665;-76
2020/12/05 03:42:12;;;;;;;2.70;2.60;;;1.30;99.90;;;;;;5042462;28;20199;-76
2020/12/05 03:44:38;;;;;;;2.60;2.50;;;1.30;99.90;;;;;;5041721;28;20226;-76
2020/12/05 03:47:05;;;;;;;2.78;2.67;;;1.40;99.90;;;;;;5041302;28;20204;-76
2020/12/05 03:49:33;;;;;;;2.78;2.67;;;1.40;99.90;;;;;;5044306;28;20195;-76
2020/12/05 03:51:59;;;;;;;3.17;3.08;;;1.40;99.90;;;;;;5046202;28;20261;-76
2020/12/05 03:54:27;;;;;;;2.92;2.83;;;1.30;99.90;;;;;;5042633;28;20234;-76
2020/12/05 03:56:53;;;;;;;3.40;3.30;;;1.30;99.90;;;;;;5039610;28;20210;-75
2020/12/05 03:59:20;;;;;;;3.25;3.15;;;1.30;99.90;;;;;;5042907;28;20219;-77
2020/12/05 04:01:47;;;;;;;3.15;3.05;;;1.20;99.90;;;;;;5040521;28;20195;-76
2020/12/05 04:04:13;;;;;;;3.40;3.22;;;1.20;99.90;;;;;;5044835;28;20224;-76
2020/12/05 04:06:41;;;;;;;2.83;2.72;;;1.20;99.90;;;;;;5043503;28;20202;-76
2020/12/05 04:09:07;;;;;;;4.07;3.38;;;1.20;99.90;;;;;;5041076;28;20223;-77
2020/12/05 04:11:37;;;;;;;3.10;3.00;;;1.10;99.90;;;;;;5044366;28;20497;-76
2020/12/05 04:14:04;;;;;;;2.90;2.80;;;1.20;99.90;;;;;;5043086;28;20675;-76
2020/12/05 04:16:31;;;;;;;3.15;3.05;;;1.20;99.90;;;;;;5043847;28;20214;-77
2020/12/05 04:18:58;;;;;;;2.90;2.80;;;1.20;99.90;;;;;;5039766;28;20223;-77
2020/12/05 04:21:24;;;;;;;3.40;3.30;;;1.30;99.90;;;;;;5039358;28;20711;-76
2020/12/05 04:23:53;;;;;;;3.17;3.08;;;1.30;99.90;;;;;;5039319;28;20239;-76
2020/12/05 04:26:20;;;;;;;3.05;2.95;;;1.40;99.90;;;;;;5047214;28;20582;-76
2020/12/05 04:28:46;;;;;;;3.10;3.00;;;1.40;99.90;;;;;;5046883;28;20233;-77
2020/12/05 04:31:13;;;;;;;3.05;2.95;;;1.40;99.90;;;;;;5039766;28;20207;-76
2020/12/05 04:33:39;;;;;;;3.17;3.08;;;1.50;99.90;;;;;;5040567;28;20229;-76
2020/12/05 04:36:06;;;;;;;2.83;2.72;;;1.40;99.90;;;;;;5040821;28;20265;-76
2020/12/05 04:38:33;;;;;;;2.75;2.65;;;1.50;99.90;;;;;;5042105;28;20704;-76
2020/12/05 04:41:01;;;;;;;5.53;3.35;;;1.50;99.90;;;;;;5042983;28;20666;-76
2020/12/05 04:43:28;;;;;;;3.45;3.35;;;1.50;99.90;;;;;;5042747;28;20955;-77
2020/12/05 04:45:56;;;;;;;3.55;3.45;;;1.40;99.90;;;;;;5039728;28;20261;-76
2020/12/05 04:48:22;;;;;;;3.10;2.90;;;1.40;99.90;;;;;;5041385;28;20409;-76
2020/12/05 04:50:49;;;;;;;3.67;3.58;;;1.40;99.90;;;;;;5039693;28;20202;-76
2020/12/05 04:53:18;;;;;;;3.70;3.50;;;1.40;99.90;;;;;;5041515;28;20310;-76
2020/12/05 04:55:45;;;;;;;3.80;3.60;;;1.40;99.90;;;;;;5037407;28;20234;-76
2020/12/05 04:58:20;;;;;;;3.03;2.92;;;1.40;99.90;;;;;;5040990;28;20305;-76
2020/12/05 05:00:51;;;;;;;3.20;3.10;;;1.40;99.90;;;;;;5039271;28;20210;-76
2020/12/05 05:03:21;;;;;;;2.95;2.85;;;1.40;99.90;;;;;;5046224;28;20231;-76
2020/12/05 05:05:48;;;;;;;3.05;2.95;;;1.40;99.90;;;;;;5044452;28;20202;-76
2020/12/05 05:08:15;;;;;;;3.15;3.05;;;1.40;99.90;;;;;;5040727;28;20223;-76
2020/12/05 05:10:42;;;;;;;3.30;3.20;;;1.50;99.90;;;;;;5039760;28;20689;-76
2020/12/05 05:13:14;;;;;;;3.08;2.97;;;1.50;99.90;;;;;;5040696;28;20249;-76
2020/12/05 05:15:42;;;;;;;3.53;3.42;;;1.50;99.90;;;;;;5045939;28;20232;-76
2020/12/05 05:18:10;;;;;;;3.03;2.92;;;1.60;99.90;;;;;;5040075;28;20280;-75
2020/12/05 05:20:42;;;;;;;3.22;3.13;;;1.60;99.90;;;;;;5036438;28;21633;-77
2020/12/05 05:23:14;;;;;;;3.10;3.00;;;1.60;99.90;;;;;;5038375;28;20238;-76
2020/12/05 05:25:55;;;;;;;3.50;3.40;;;1.60;99.90;;;;;;5045319;28;20203;-76
2020/12/05 05:28:25;;;;;;;3.00;2.90;;;1.60;99.90;;;;;;5042404;28;20720;-76
2020/12/05 05:31:16;;;;;;;3.33;3.22;;;1.60;99.90;;;;;;5042787;28;20207;-76
2020/12/05 05:33:45;;;;;;;3.65;3.45;;;1.60;99.90;;;;;;5040831;28;20715;-77
2020/12/05 05:36:20;;;;;;;3.28;3.17;;;1.60;99.90;;;;;;5042500;28;20231;-76
2020/12/05 05:38:57;;;;;;;3.22;3.13;;;1.60;99.90;;;;;;5043101;28;20214;-76
2020/12/05 05:41:24;;;;;;;3.38;3.28;;;1.60;99.90;;;;;;5039328;28;20545;-76
2020/12/05 05:43:56;;;;;;;3.20;3.10;;;1.60;99.90;;;;;;5040360;28;20312;-76
2020/12/05 05:46:24;;;;;;;3.25;3.15;;;1.70;99.90;;;;;;5040271;28;20195;-76
2020/12/05 05:48:52;;;;;;;3.00;2.90;;;1.70;99.90;;;;;;5044091;28;20661;-76
2020/12/05 05:51:35;;;;;;;2.80;2.70;;;1.80;99.90;;;;;;5039866;28;20199;-76
2020/12/05 05:54:27;;;;;;;3.00;2.90;;;1.90;99.90;;;;;;5038605;28;20254;-77
2020/12/05 05:56:58;;;;;;;3.30;3.20;;;1.90;99.90;;;;;;5036219;28;20197;-76
2020/12/05 05:59:26;;;;;;;3.55;3.35;;;1.90;99.90;;;;;;5039983;28;20792;-76
2020/12/05 06:01:54;;;;;;;3.80;3.60;;;1.90;99.90;;;;;;5043585;28;20199;-76
2020/12/05 06:04:29;;;;;;;3.67;3.47;;;1.90;99.90;;;;;;5037495;28;20243;-76
2020/12/05 06:06:59;;;;;;;3.75;3.55;;;1.80;99.90;;;;;;5033738;28;20260;-76
2020/12/05 06:09:33;;;;;;;4.15;3.85;;;1.80;99.90;;;;;;5036691;28;20600;-76
2020/12/05 06:12:02;;;;;;;4.35;4.05;;;1.80;99.90;;;;;;5043452;28;20217;-76
2020/12/05 06:14:30;;;;;;;3.85;3.65;;;1.70;99.90;;;;;;5037221;28;20227;-76
2020/12/05 06:16:59;;;;;;;4.18;3.97;;;1.70;99.90;;;;;;5040117;28;20203;-76
2020/12/05 06:19:26;;;;;;;3.67;3.47;;;1.60;99.90;;;;;;5033901;28;20632;-76
2020/12/05 06:21:55;;;;;;;29.40;5.03;;;1.60;99.90;;;;;;5035384;28;20244;-74
2020/12/05 06:24:40;;;;;;;3.65;3.45;;;1.60;99.90;;;;;;5041498;28;20225;-76
2020/12/05 06:27:09;;;;;;;3.28;3.15;;;1.50;99.90;;;;;;5036258;28;20219;-76
2020/12/05 06:29:38;;;;;;;3.42;3.22;;;1.40;99.90;;;;;;5041061;28;20242;-77
2020/12/05 06:32:06;;;;;;;4.32;3.63;;;1.40;99.90;;;;;;5036007;28;20305;-76
2020/12/05 06:34:36;;;;;;;44.05;5.65;;;1.40;99.90;;;;;;5040864;28;20223;-76
2020/12/05 06:37:02;;;;;;;15.77;5.13;;;1.40;99.90;;;;;;5039236;28;20199;-77
2020/12/05 06:39:29;;;;;;;4.50;4.30;;;1.30;99.90;;;;;;5035510;28;20215;-76
2020/12/05 06:41:56;;;;;;;4.97;4.68;;;1.30;99.90;;;;;;5036079;28;20245;-77
2020/12/05 06:44:24;;;;;;;4.60;4.40;;;1.30;99.90;;;;;;5035903;28;20252;-77
2020/12/05 06:46:56;;;;;;;4.60;4.30;;;1.30;99.90;;;;;;5039982;28;20596;-76
2020/12/05 06:49:51;;;;;;;4.55;4.35;;;1.40;99.90;;;;;;5039325;28;20219;-76
2020/12/05 06:52:34;;;;;;;4.22;4.03;;;1.50;99.90;;;;;;5034361;28;20700;-77
2020/12/05 06:55:04;;;;;;;4.28;4.07;;;1.50;99.90;;;;;;5034021;28;20298;-77
2020/12/05 06:57:32;;;;;;;6.57;6.07;;;1.60;99.90;;;;;;5042960;28;20206;-76
2020/12/05 07:00:26;;;;;;;6.07;5.68;;;1.50;99.90;;;;;;5039903;28;20226;-77
2020/12/05 07:03:01;;;;;;;4.80;4.55;;;1.40;99.90;;;;;;4994711;28;20708;-76
2020/12/05 07:05:38;;;;;;;5.13;4.82;;;1.40;99.90;;;;;;5042082;28;20244;-78
2020/12/05 07:08:29;;;;;;;5.50;5.15;;;1.50;99.90;;;;;;5038514;28;20226;-77
2020/12/05 07:10:59;;;;;;;4.80;4.50;;;1.50;99.90;;;;;;5041453;28;20204;-77
2020/12/05 07:13:28;;;;;;;4.57;4.38;;;1.50;99.90;;;;;;5077943;22;20223;-67
2020/12/05 07:16:16;;;;;;;4.80;4.50;;;1.60;99.90;;;;;;5022815;28;20211;-67
2020/12/05 07:18:43;;;;;;;3.80;3.60;;;1.60;99.90;;;;;;5026097;28;20212;-67
2020/12/05 07:21:12;;;;;;;4.03;3.83;;;1.60;99.90;;;;;;5027800;28;20207;-67
2020/12/05 07:23:38;;;;;;;4.03;3.83;;;1.70;99.90;;;;;;5022352;28;20227;-67
2020/12/05 07:26:06;;;;;;;4.20;3.90;;;1.70;99.90;;;;;;5019525;28;20239;-67
2020/12/05 07:28:33;;;;;;;3.95;3.75;;;1.70;99.90;;;;;;5017875;28;20211;-68
2020/12/05 07:30:59;;;;;;;3.35;3.15;;;1.70;99.90;;;;;;5023847;28;20208;-67
2020/12/05 07:33:27;;;;;;;3.67;3.58;;;1.70;99.90;;;;;;5020322;28;20223;-67
2020/12/05 07:36:03;;;;;;;3.30;3.20;;;1.80;99.90;;;;;;5019119;28;20204;-67
2020/12/05 07:38:32;;;;;;;3.50;3.40;;;1.80;99.90;;;;;;5022876;28;20306;-67
2020/12/05 07:40:58;;;;;;;3.17;3.08;;;1.80;99.90;;;;;;5018738;28;20199;-67
2020/12/05 07:43:25;;;;;;;3.20;3.10;;;1.80;99.90;;;;;;5023151;28;20277;-67
2020/12/05 07:45:53;;;;;;;3.40;3.30;;;1.90;99.90;;;;;;5030311;28;20655;-67
2020/12/05 07:48:21;;;;;;;3.05;2.95;;;1.90;99.90;;;;;;5028952;28;20226;-67
2020/12/05 07:50:49;;;;;;;3.33;3.22;;;1.90;99.90;;;;;;5027341;28;20294;-67
2020/12/05 07:53:23;;;;;;;2.65;2.55;;;1.90;99.90;;;;;;5022722;28;20220;-67
2020/12/05 07:55:51;;;;;;;3.33;3.22;;;2.00;99.90;;;;;;5025021;28;20210;-67
2020/12/05 07:58:18;;;;;;;3.42;3.33;;;2.00;99.90;;;;;;5027470;28;20247;-67
2020/12/05 08:00:44;;;;;;;3.53;3.33;;;1.90;99.90;;;;;;5022287;28;20214;-69
2020/12/05 08:03:55;;;;;;;4.10;3.90;;;1.90;99.90;;;;;;5021428;28;20632;-67
2020/12/05 08:06:39;;;;;;;3.95;3.75;;;1.90;99.90;;;;;;5022788;28;20729;-67
2020/12/05 08:09:06;;;;;;;3.60;3.40;;;1.80;99.90;;;;;;5018961;28;20224;-67
2020/12/05 08:11:51;;;;;;;3.70;3.50;;;1.90;99.90;;;;;;5020114;28;20204;-68
2020/12/05 08:14:18;;;;;;;3.50;3.30;;;1.90;99.90;;;;;;5022187;28;20238;-69
2020/12/05 08:16:44;;;;;;;3.63;3.42;;;1.90;99.90;;;;;;5016531;28;20192;-68
2020/12/05 08:19:11;;;;;;;4.18;3.95;;;1.90;99.90;;;;;;5017825;28;21028;-68
2020/12/05 08:21:38;;;;;;;3.75;3.45;;;2.00;99.90;;;;;;5028570;28;20577;-68
2020/12/05 08:24:10;;;;;;;4.10;3.90;;;2.00;99.90;;;;;;5019434;28;20230;-67
2020/12/05 08:26:38;;;;;;;4.20;4.00;;;2.00;99.90;;;;;;5018543;28;20705;-68
2020/12/05 08:29:07;;;;;;;4.90;4.60;;;2.00;99.90;;;;;;5025440;28;20229;-68
2020/12/05 08:31:40;;;;;;;4.78;4.50;;;2.00;99.90;;;;;;5021615;28;20753;-68
2020/12/05 08:34:06;;;;;;;5.40;5.10;;;2.00;99.90;;;;;;5026551;28;20285;-68
2020/12/05 08:36:34;;;;;;;4.70;4.40;;;2.00;99.90;;;;;;5020410;28;20283;-68
2020/12/05 08:39:06;;;;;;;4.32;4.13;;;2.10;99.90;;;;;;5018281;28;20216;-68
2020/12/05 08:41:43;;;;;;;4.22;4.03;;;2.10;99.90;;;;;;5022969;28;20289;-68
2020/12/05 08:44:13;;;;;;;4.50;4.20;;;2.10;99.90;;;;;;5019135;28;20270;-70
2020/12/05 08:46:39;;;;;;;4.55;4.35;;;2.20;99.90;;;;;;5021965;28;20895;-68
2020/12/05 08:49:16;;;;;;;4.55;4.35;;;2.20;99.90;;;;;;5024635;28;20239;-67
2020/12/05 08:51:47;;;;;;;5.78;5.43;;;2.20;99.90;;;;;;5018847;28;20203;-68
2020/12/05 08:54:14;;;;;;;5.63;5.32;;;2.20;99.90;;;;;;5021687;28;20228;-68
2020/12/05 08:56:40;;;;;;;6.03;5.63;;;2.20;99.90;;;;;;5026971;28;20202;-69
2020/12/05 08:59:07;;;;;;;5.70;5.30;;;2.20;99.90;;;;;;5018752;28;20228;-68
2020/12/05 09:01:42;;;;;;;7.22;6.57;;;2.20;99.90;;;;;;5017820;28;20204;-71
2020/12/05 09:04:11;;;;;;;6.13;5.63;;;2.10;99.90;;;;;;5024222;28;20222;-70
2020/12/05 09:06:38;;;;;;;6.38;5.97;;;2.10;99.90;;;;;;5020801;28;20223;-68
2020/12/05 09:09:05;;;;;;;5.97;5.57;;;2.10;99.90;;;;;;5020782;28;20227;-68
2020/12/05 09:11:31;;;;;;;5.28;4.97;;;2.10;99.90;;;;;;5014862;28;20196;-67
2020/12/05 09:13:58;;;;;;;5.00;4.70;;;2.20;99.90;;;;;;5018195;28;20231;-67
2020/12/05 09:16:33;;;;;;;4.38;4.18;;;2.20;99.90;;;;;;5022539;28;20203;-67
2020/12/05 09:19:01;;;;;;;4.65;4.35;;;2.20;99.90;;;;;;5017651;28;20229;-67
2020/12/05 09:21:35;;;;;;;4.35;4.05;;;2.20;99.90;;;;;;5018937;28;20251;-67
2020/12/05 09:24:03;;;;;;;4.55;4.32;;;2.20;99.90;;;;;;5020875;28;20569;-67
2020/12/05 09:26:32;;;;;;;4.20;4.00;;;2.20;99.90;;;;;;5016836;28;20214;-68
2020/12/05 09:28:59;;;;;;;3.88;3.67;;;2.20;99.90;;;;;;5015745;28;20220;-67
2020/12/05 09:31:25;;;;;;;5.07;4.78;;;2.20;99.90;;;;;;5019565;28;20207;-67
2020/12/05 09:33:52;;;;;;;5.40;5.10;;;2.20;99.90;;;;;;5017376;28;20718;-67
2020/12/05 09:36:19;;;;;;;4.75;4.45;;;2.20;99.90;;;;;;5019177;28;20204;-67
2020/12/05 09:38:46;;;;;;;4.47;4.28;;;2.20;99.90;;;;;;5015896;28;20228;-68
2020/12/05 09:41:13;;;;;;;4.63;4.32;;;2.30;99.90;;;;;;5024027;28;20257;-67
2020/12/05 09:43:39;;;;;;;4.60;4.30;;;2.30;99.90;;;;;;5022574;28;20235;-67
2020/12/05 09:46:06;;;;;;;3.97;3.78;;;2.30;99.90;;;;;;5024077;28;20203;-67
2020/12/05 09:48:32;;;;;;;4.55;4.25;;;2.30;99.90;;;;;;5016844;28;20196;-67
2020/12/05 09:50:59;;;;;;;7.10;6.50;;;2.40;99.90;;;;;;5016036;28;20662;-67
2020/12/05 09:53:26;;;;;;;8.50;7.70;;;2.40;99.90;;;;;;5017859;28;20231;-68
2020/12/05 09:55:52;;;;;;;7.00;6.40;;;2.40;99.90;;;;;;5019073;28;20227;-67
2020/12/05 09:58:19;;;;;;;7.35;6.70;;;2.30;99.90;;;;;;5022027;28;20196;-68
2020/12/05 10:00:46;;;;;;;8.07;7.38;;;2.40;99.90;;;;;;5018344;28;20223;-68
2020/12/05 10:03:12;;;;;;;6.63;6.13;;;2.40;99.90;;;;;;5024258;28;20220;-67
2020/12/05 10:05:39;;;;;;;6.63;6.03;;;2.50;99.90;;;;;;5020637;28;20223;-67
2020/12/05 10:08:05;;;;;;;7.10;6.50;;;2.50;99.90;;;;;;5017321;28;20962;-67
2020/12/05 10:10:33;;;;;;;6.00;5.53;;;2.50;99.90;;;;;;5015112;28;20238;-67
2020/12/05 10:12:59;;;;;;;5.78;5.38;;;2.50;99.90;;;;;;5013342;28;20220;-67
2020/12/05 10:15:26;;;;;;;4.72;4.43;;;2.50;99.90;;;;;;5016718;28;20231;-67
2020/12/05 10:17:53;;;;;;;4.88;4.57;;;2.50;99.90;;;;;;5015137;28;20202;-70
2020/12/05 10:20:19;;;;;;;4.18;3.88;;;2.40;99.90;;;;;;5015223;28;20215;-70
2020/12/05 10:22:46;;;;;;;4.40;4.18;;;2.40;99.90;;;;;;5009354;28;20215;-68
2020/12/05 10:25:12;;;;;;;4.80;4.50;;;2.40;99.90;;;;;;5012054;28;20269;-67
2020/12/05 10:27:40;;;;;;;5.30;4.80;;;2.40;99.90;;;;;;5015536;28;20216;-71
2020/12/05 10:30:08;;;;;;;6.75;6.15;;;2.40;99.90;;;;;;5014752;28;20575;-68
2020/12/05 10:32:34;;;;;;;5.95;5.45;;;2.30;99.90;;;;;;5014364;28;20223;-68
2020/12/05 10:35:01;;;;;;;6.00;5.50;;;2.30;99.90;;;;;;5015606;28;20324;-68
2020/12/05 10:37:27;;;;;;;6.82;6.20;;;2.30;99.90;;;;;;5012322;28;20270;-68
2020/12/05 10:39:54;;;;;;;5.80;5.30;;;2.30;99.90;;;;;;5017729;28;20227;-67
2020/12/05 10:42:20;;;;;;;6.10;5.60;;;2.30;99.90;;;;;;5014306;28;22049;-68
2020/12/05 10:44:48;;;;;;;5.80;5.30;;;2.30;99.90;;;;;;5008106;28;20752;-68
2020/12/05 10:47:14;;;;;;;5.53;5.13;;;2.30;99.90;;;;;;5010903;28;20219;-68
2020/12/05 10:49:41;;;;;;;5.07;4.78;;;2.30;99.90;;;;;;5015149;28;20318;-68
2020/12/05 10:52:07;;;;;;;5.47;5.07;;;2.30;99.90;;;;;;5017856;28;20224;-68
2020/12/05 10:54:34;;;;;;;4.50;4.20;;;2.30;99.90;;;;;;5015463;28;20749;-67
2020/12/05 10:57:00;;;;;;;4.32;4.03;;;2.20;99.90;;;;;;5010171;28;20204;-68
2020/12/05 10:59:27;;;;;;;4.03;3.83;;;2.20;99.90;;;;;;5015569;28;20216;-68
2020/12/05 11:01:55;;;;;;;5.18;4.88;;;2.20;99.90;;;;;;5018544;28;20688;-68
2020/12/05 11:04:22;;;;;;;4.50;4.20;;;2.30;99.90;;;;;;5014653;28;20309;-68
2020/12/05 11:06:48;;;;;;;4.18;3.95;;;2.20;99.90;;;;;;5018697;28;20203;-68
2020/12/05 11:09:15;;;;;;;4.65;4.35;;;2.20;99.90;;;;;;5015787;28;20216;-68
2020/12/05 11:11:43;;;;;;;4.75;4.45;;;2.20;99.90;;;;;;5017224;28;20262;-68
2020/12/05 11:14:10;;;;;;;5.00;4.60;;;2.20;99.90;;;;;;5012695;28;20249;-68
2020/12/05 11:16:36;;;;;;;4.85;4.55;;;2.20;99.90;;;;;;5014183;28;20205;-68
2020/12/05 11:19:04;;;;;;;4.60;4.30;;;2.20;99.90;;;;;;5018437;28;20216;-68
2020/12/05 11:21:30;;;;;;;4.63;4.32;;;2.10;99.90;;;;;;5016266;28;20217;-68
2020/12/05 11:23:57;;;;;;;4.65;4.32;;;2.10;99.90;;;;;;5013995;28;20242;-69
2020/12/05 11:26:24;;;;;;;5.35;4.97;;;2.10;99.90;;;;;;5014981;28;20701;-68
2020/12/05 11:28:51;;;;;;;4.93;4.63;;;2.10;99.90;;;;;;5012398;28;20223;-68
2020/12/05 11:31:17;;;;;;;5.28;4.97;;;2.10;99.90;;;;;;5019163;28;20199;-69
2020/12/05 11:33:44;;;;;;;5.70;5.40;;;2.10;99.90;;;;;;5022578;28;20216;-68
2020/12/05 11:36:12;;;;;;;5.47;5.07;;;2.10;99.90;;;;;;5017617;28;20258;-69
2020/12/05 11:38:39;;;;;;;7.65;7.05;;;2.10;99.90;;;;;;5022802;28;20799;-69
2020/12/05 11:41:05;;;;;;;9.35;8.57;;;2.00;99.90;;;;;;5017807;28;20207;-69
2020/12/05 11:43:32;;;;;;;8.05;7.45;;;2.00;99.90;;;;;;5019223;28;20222;-69
2020/12/05 11:45:58;;;;;;;7.15;6.65;;;1.90;99.90;;;;;;5019319;28;20262;-69
2020/12/05 11:48:25;;;;;;;6.25;5.75;;;2.00;99.90;;;;;;5023785;28;20199;-69
2020/12/05 11:50:52;;;;;;;6.97;6.43;;;2.00;99.90;;;;;;5017693;28;20787;-69
2020/12/05 11:53:19;;;;;;;8.32;7.63;;;2.10;99.90;;;;;;5018101;28;20226;-69
2020/12/05 11:55:45;;;;;;;31.33;23.13;;;2.10;99.90;;;;;;5021144;28;20694;-69
2020/12/05 11:58:12;;;;;;;17.92;15.32;;;2.10;99.90;;;;;;5019951;28;20202;-69
2020/12/05 12:00:38;;;;;;;13.38;11.52;;;2.10;99.90;;;;;;5020077;28;20224;-69
2020/12/05 12:03:05;;;;;;;12.13;10.93;;;2.10;99.90;;;;;;5019467;28;20218;-69
2020/12/05 12:05:32;;;;;;;10.15;9.10;;;2.10;99.90;;;;;;5015192;28;20305;-69
2020/12/05 12:07:58;;;;;;;10.50;9.50;;;2.00;99.90;;;;;;5023142;28;20199;-70
2020/12/05 12:10:26;;;;;;;10.60;9.60;;;2.00;99.90;;;;;;5019675;28;20354;-68
2020/12/05 12:12:52;;;;;;;9.48;8.57;;;2.00;99.90;;;;;;5015931;28;20222;-68
2020/12/05 12:15:19;;;;;;;9.30;8.45;;;2.00;99.90;;;;;;5013112;28;20219;-70
2020/12/05 12:17:45;;;;;;;8.68;7.97;;;1.90;99.90;;;;;;5017207;28;20196;-68
2020/12/05 12:20:12;;;;;;;8.30;7.60;;;1.90;99.90;;;;;;5018536;28;20270;-69
2020/12/05 12:22:38;;;;;;;7.10;6.53;;;1.80;99.90;;;;;;5014266;28;20204;-69
2020/12/05 12:25:06;;;;;;;7.10;6.55;;;1.80;99.90;;;;;;5003711;28;20223;-68
2020/12/05 12:27:33;;;;;;;7.72;7.03;;;1.80;99.90;;;;;;5000370;28;20693;-67
2020/12/05 12:30:00;;;;;;;7.75;7.15;;;1.80;99.90;;;;;;5016059;28;20746;-67
2020/12/05 12:32:26;;;;;;;7.22;6.63;;;1.90;99.90;;;;;;5016714;28;20590;-67
2020/12/05 12:34:53;;;;;;;6.53;6.03;;;1.90;99.90;;;;;;5016448;28;20227;-67
2020/12/05 12:37:20;;;;;;;7.43;6.93;;;1.90;99.90;;;;;;5011016;28;20212;-67
2020/12/05 12:39:46;;;;;;;7.18;6.63;;;1.90;99.90;;;;;;5011766;28;20231;-67
2020/12/05 12:42:13;;;;;;;5.78;5.38;;;1.90;99.90;;;;;;5010378;28;20693;-67
2020/12/05 12:44:40;;;;;;;6.55;6.13;;;1.90;99.90;;;;;;5005805;28;20228;-69
2020/12/05 12:47:12;;;;;;;6.07;5.60;;;1.80;99.90;;;;;;5013675;28;20231;-67
2020/12/05 12:49:39;;;;;;;5.97;5.57;;;1.80;99.90;;;;;;5013285;28;20303;-67
2020/12/05 12:52:06;;;;;;;5.43;5.03;;;1.80;99.90;;;;;;5013773;28;20654;-67
2020/12/05 12:54:33;;;;;;;5.97;5.57;;;1.80;99.90;;;;;;5010579;28;20230;-67
2020/12/05 12:57:00;;;;;;;6.10;5.70;;;1.90;99.90;;;;;;5013869;28;20204;-67
2020/12/05 12:59:26;;;;;;;6.60;6.20;;;1.80;99.90;;;;;;5010054;28;20231;-67
2020/12/05 13:01:55;;;;;;;4.95;4.65;;;1.80;99.90;;;;;;5017578;28;20199;-67
2020/12/05 13:04:21;;;;;;;6.10;5.70;;;1.70;99.90;;;;;;5012029;28;20290;-67